aviador You're here:

CYMM Decoded Metar

FORT MCMURRAY in AB, CANADA
Report Time2017-08-19 01:00:00
UTC Time2017-08-19 01:53:11
Flight Rules vfr VFR
Wind240° at 13 Gusting to 20 kt
W.Decomp.*RWY 25: 11.6 kt HW 5.9 kt LCW
W.Rank240° ranks 7
Current wind is above 240° avg. (7.0)
Visibility9999 m
Phenomena:N/A
Clouds:Few 190 Hf
Expected CloudBase > 4,800 ft AGL from Temp-Dew spread
CeilingNone
Temp21°C (ISA +8)
Dew Point09°C (46% RH)
AAT16.1°C
QNH1003 hPa
Density Alt2,687 ft
Elevation1,211 ft
Report Wrong Elevation
Raw Report
CYMM 190100Z AUTO 24013G20KT 9SM FEW190 21/09 A2962 RMK SLP036
DENSITY ALT 2400FT=

Extra information for CYMM:More info

Metar Taf Metar & Taf Last 4 Metars F.Rules Stats Wind Profile Meteogram Temp Stats Airport Information Weather charts Add Link Nearby VenuesMetar ALERT Operation Metar Decoded Social comments